createdAt,value
2017-11-07T00:01:51.628Z,95758.05
2017-11-07T00:04:19.984Z,95751.80
2017-11-07T00:06:48.342Z,95749.59
2017-11-07T00:09:16.718Z,95747.60
2017-11-07T00:11:45.069Z,95760.11
2017-11-07T00:14:13.420Z,95750.86
2017-11-07T00:16:41.837Z,95751.94
2017-11-07T00:19:10.187Z,95754.59
2017-11-07T00:21:38.547Z,95756.20
2017-11-07T00:24:06.902Z,95762.11
2017-11-07T00:26:35.241Z,95759.28
2017-11-07T00:29:03.599Z,95756.51
2017-11-07T00:31:31.975Z,95763.45
2017-11-07T00:34:00.324Z,95764.84
2017-11-07T00:36:29.600Z,95765.77
2017-11-07T00:38:57.955Z,95767.11
2017-11-07T00:41:26.304Z,95760.95
2017-11-07T00:43:54.672Z,95761.75
2017-11-07T00:46:23.029Z,95756.00
2017-11-07T00:48:51.392Z,95750.98
2017-11-07T00:51:19.770Z,95759.09
2017-11-07T00:53:48.119Z,95752.94
2017-11-07T00:56:16.486Z,95753.63
2017-11-07T00:58:44.846Z,95755.19
2017-11-07T01:01:13.257Z,95757.54
2017-11-07T01:03:41.606Z,95757.90
2017-11-07T01:06:09.954Z,95758.24
2017-11-07T01:08:38.339Z,95747.08
2017-11-07T01:11:06.689Z,95741.03
2017-11-07T01:13:35.082Z,95734.69
2017-11-07T01:16:03.434Z,95740.11
2017-11-07T01:18:31.801Z,95739.02
2017-11-07T01:21:00.290Z,95737.04
2017-11-07T01:23:28.633Z,95730.86
2017-11-07T01:25:56.982Z,95730.81
2017-11-07T01:28:25.355Z,95726.23
2017-11-07T01:30:53.719Z,95725.50
2017-11-07T01:33:22.104Z,95727.75
2017-11-07T01:35:50.455Z,95728.16
2017-11-07T01:38:18.939Z,95732.67
2017-11-07T01:40:47.295Z,95735.02
2017-11-07T01:43:15.637Z,95731.34
2017-11-07T01:45:44.037Z,95725.93
2017-11-07T01:48:12.398Z,95731.48
2017-11-07T01:50:40.786Z,95730.36
2017-11-07T01:53:09.151Z,95728.20
2017-11-07T01:55:37.642Z,95724.85
2017-11-07T01:58:05.991Z,95724.95
2017-11-07T02:00:34.347Z,95726.67
2017-11-07T02:03:02.750Z,95720.97
2017-11-07T02:05:31.116Z,95713.44
2017-11-07T02:07:59.510Z,95716.05
2017-11-07T02:10:27.865Z,95713.09
2017-11-07T02:12:56.203Z,95713.05
2017-11-07T02:15:24.592Z,95712.47
2017-11-07T02:17:52.930Z,95716.14
2017-11-07T02:20:21.274Z,95710.64
2017-11-07T02:22:49.667Z,95717.77
2017-11-07T02:25:18.044Z,95708.98
2017-11-07T02:27:46.436Z,95710.66
2017-11-07T02:30:14.793Z,95704.75
2017-11-07T02:32:43.171Z,95705.28
2017-11-07T02:35:11.532Z,95703.80
2017-11-07T02:37:39.917Z,95702.48
2017-11-07T02:40:08.287Z,95699.30
2017-11-07T02:42:36.651Z,95706.94
2017-11-07T02:45:05.030Z,95696.73
2017-11-07T02:47:33.403Z,95700.08
2017-11-07T02:50:01.762Z,95703.52
2017-11-07T02:52:30.146Z,95699.23
2017-11-07T02:54:58.518Z,95690.68
2017-11-07T02:57:27.002Z,95690.28
2017-11-07T02:59:55.361Z,95685.81
2017-11-07T03:02:23.710Z,95679.53
2017-11-07T03:04:52.094Z,95672.78
2017-11-07T03:07:20.450Z,95678.14
2017-11-07T03:09:48.831Z,95674.63
2017-11-07T03:12:17.212Z,95669.09
2017-11-07T03:14:45.602Z,95670.62
2017-11-07T03:17:13.946Z,95667.92
2017-11-07T03:19:42.286Z,95663.31
2017-11-07T03:22:10.632Z,95655.63
2017-11-07T03:24:38.991Z,95653.89
2017-11-07T03:27:07.372Z,95649.29
2017-11-07T03:29:35.729Z,95653.05
2017-11-07T03:32:04.962Z,95649.49
2017-11-07T03:34:33.322Z,95642.22
2017-11-07T03:37:01.673Z,95630.27
2017-11-07T03:39:30.044Z,95639.34
2017-11-07T03:41:58.386Z,95633.63
2017-11-07T03:44:26.750Z,95633.48
2017-11-07T03:46:55.108Z,95626.80
2017-11-07T03:49:23.450Z,95632.38
2017-11-07T03:51:51.811Z,95630.80
2017-11-07T03:54:20.170Z,95625.45
2017-11-07T03:56:48.532Z,95624.18
2017-11-07T03:59:16.882Z,95618.44
2017-11-07T04:01:45.377Z,95618.03
2017-11-07T04:04:13.727Z,95625.37
2017-11-07T04:06:42.101Z,95622.42
2017-11-07T04:09:10.479Z,95624.73
2017-11-07T04:11:38.818Z,95625.77
2017-11-07T04:14:07.196Z,95622.98
2017-11-07T04:16:35.581Z,95621.41
2017-11-07T04:19:03.935Z,95624.80
2017-11-07T04:21:32.310Z,95625.77
2017-11-07T04:24:02.899Z,95626.92
2017-11-07T04:26:31.726Z,95624.33
2017-11-07T04:29:00.066Z,95624.81
2017-11-07T04:31:28.403Z,95619.13
2017-11-07T04:33:56.765Z,95620.42
2017-11-07T04:36:25.121Z,95624.55
2017-11-07T04:38:53.474Z,95615.72
2017-11-07T04:41:21.819Z,95617.23
2017-11-07T04:43:50.427Z,95617.93
2017-11-07T04:46:18.783Z,95604.23
2017-11-07T04:48:47.141Z,95606.08
2017-11-07T04:51:15.496Z,95611.37
2017-11-07T04:53:43.858Z,95609.48
2017-11-07T04:56:12.208Z,95604.54
2017-11-07T04:58:40.572Z,95605.81
2017-11-07T05:01:08.925Z,95612.80
2017-11-07T05:03:37.274Z,95604.50
2017-11-07T05:06:05.625Z,95608.14
2017-11-07T05:08:33.993Z,95610.87
2017-11-07T05:11:02.354Z,95606.34
2017-11-07T05:13:30.727Z,95601.45
2017-11-07T05:15:59.079Z,95600.50
2017-11-07T05:18:27.431Z,95611.29
2017-11-07T05:20:55.783Z,95597.28
2017-11-07T05:23:24.162Z,95605.58
2017-11-07T05:25:52.551Z,95603.92
2017-11-07T05:28:20.904Z,95601.69
2017-11-07T05:30:49.262Z,95608.25
2017-11-07T05:33:17.614Z,95603.30
2017-11-07T05:35:45.962Z,95607.36
2017-11-07T05:38:14.325Z,95599.66
2017-11-07T05:40:42.690Z,95597.95
2017-11-07T05:43:11.057Z,95607.33
2017-11-07T05:45:39.412Z,95601.67
2017-11-07T05:48:07.934Z,95594.97
2017-11-07T05:50:36.283Z,95595.79
2017-11-07T05:53:04.629Z,95591.53
2017-11-07T05:55:32.990Z,95589.50
2017-11-07T05:58:01.352Z,95588.51
2017-11-07T06:00:29.699Z,95592.41
2017-11-07T06:02:58.047Z,95590.23
2017-11-07T06:05:26.393Z,95593.27
2017-11-07T06:07:54.792Z,95585.68
2017-11-07T06:10:23.132Z,95591.16
2017-11-07T06:12:51.480Z,95586.93
2017-11-07T06:15:19.846Z,95586.47
2017-11-07T06:17:48.213Z,95595.30
2017-11-07T06:20:16.583Z,95591.72
2017-11-07T06:22:44.953Z,95592.31
2017-11-07T06:25:13.318Z,95593.39
2017-11-07T06:27:41.650Z,95587.72
2017-11-07T06:30:09.999Z,95587.58
2017-11-07T06:32:38.368Z,95583.84
2017-11-07T06:35:06.735Z,95586.11
2017-11-07T06:37:35.079Z,95589.98
2017-11-07T06:40:03.463Z,95588.08
2017-11-07T06:42:31.818Z,95591.22
2017-11-07T06:45:00.204Z,95589.09
2017-11-07T06:47:28.913Z,95589.29
2017-11-07T06:49:57.258Z,95585.12
2017-11-07T06:52:25.632Z,95589.81
2017-11-07T06:54:54.031Z,95579.69
2017-11-07T06:57:22.395Z,95580.92
2017-11-07T06:59:50.786Z,95569.77
2017-11-07T07:02:19.155Z,95578.63
2017-11-07T07:04:47.502Z,95569.34
2017-11-07T07:07:15.847Z,95567.44
2017-11-07T07:09:44.231Z,95574.64
2017-11-07T07:12:12.574Z,95570.27
2017-11-07T07:14:40.962Z,95573.86
2017-11-07T07:17:09.312Z,95563.50
2017-11-07T07:19:37.658Z,95562.30
2017-11-07T07:22:06.031Z,95565.89
2017-11-07T07:24:34.379Z,95570.84
2017-11-07T07:27:02.754Z,95567.02
2017-11-07T07:29:31.118Z,95553.11
2017-11-07T07:31:59.676Z,95554.48
2017-11-07T07:34:28.180Z,95551.42
2017-11-07T07:36:56.859Z,95550.50
2017-11-07T07:39:25.315Z,95555.91
2017-11-07T07:41:53.684Z,95552.89
2017-11-07T07:44:22.025Z,95546.19
2017-11-07T07:46:50.374Z,95547.48
2017-11-07T07:49:18.737Z,95544.30
2017-11-07T07:51:47.098Z,95560.13
2017-11-07T07:54:15.450Z,95556.67
2017-11-07T07:56:43.832Z,95558.61
2017-11-07T07:59:12.158Z,95563.66
2017-11-07T08:01:40.542Z,95560.13
2017-11-07T08:04:08.894Z,95567.61
2017-11-07T08:06:37.261Z,95566.20
2017-11-07T08:09:05.629Z,95565.17
2017-11-07T08:11:33.963Z,95571.73
2017-11-07T08:14:02.343Z,95565.67
2017-11-07T08:16:30.914Z,95568.90
2017-11-07T08:18:59.507Z,95558.13
2017-11-07T08:21:27.886Z,95560.22
2017-11-07T08:23:56.254Z,95558.97
2017-11-07T08:26:24.853Z,95553.84
2017-11-07T08:28:53.464Z,95557.30
2017-11-07T08:31:21.819Z,95554.34
2017-11-07T08:33:50.187Z,95553.48
2017-11-07T08:36:18.579Z,95562.98
2017-11-07T08:38:47.286Z,95566.48
2017-11-07T08:41:15.660Z,95567.56
2017-11-07T08:43:44.122Z,95563.75
2017-11-07T08:46:12.735Z,95557.45
2017-11-07T08:48:41.211Z,95567.05
2017-11-07T08:51:09.679Z,95561.80
2017-11-07T08:53:38.334Z,95564.02
2017-11-07T08:56:06.983Z,95571.55
2017-11-07T08:58:35.447Z,95564.55
2017-11-07T09:01:03.812Z,95565.21
2017-11-07T09:03:32.193Z,95562.16
2017-11-07T09:06:00.539Z,95558.88
2017-11-07T09:08:28.909Z,95554.09
2017-11-07T09:10:57.312Z,95559.30
2017-11-07T09:13:25.766Z,95551.20
2017-11-07T09:15:54.122Z,95554.25
2017-11-07T09:18:22.479Z,95544.19
2017-11-07T09:20:50.827Z,95550.68
2017-11-07T09:23:19.188Z,95546.71
2017-11-07T09:25:47.567Z,95546.55
2017-11-07T09:28:15.925Z,95544.64
2017-11-07T09:30:44.304Z,95537.31
2017-11-07T09:33:12.686Z,95540.84
2017-11-07T09:35:41.047Z,95538.91
2017-11-07T09:38:09.410Z,95540.14
2017-11-07T09:40:37.767Z,95534.36
2017-11-07T09:43:06.147Z,95532.28
2017-11-07T09:45:34.524Z,95533.19
2017-11-07T09:48:02.873Z,95527.80
2017-11-07T09:50:31.249Z,95532.13
2017-11-07T09:52:59.626Z,95532.59
2017-11-07T09:55:27.976Z,95528.54
2017-11-07T09:57:56.358Z,95528.52
2017-11-07T10:00:24.712Z,95523.16
2017-11-07T10:02:53.066Z,95518.67
2017-11-07T10:05:21.420Z,95524.77
2017-11-07T10:07:49.792Z,95519.47
2017-11-07T10:10:18.158Z,95513.70
2017-11-07T10:12:46.515Z,95515.25
2017-11-07T10:15:14.869Z,95512.75
2017-11-07T10:17:43.215Z,95512.25
2017-11-07T10:20:11.631Z,95496.72
2017-11-07T10:22:39.986Z,95487.48
2017-11-07T10:25:08.334Z,95493.48
2017-11-07T10:27:36.720Z,95480.94
2017-11-07T10:30:05.075Z,95481.05
2017-11-07T10:32:33.466Z,95476.28
2017-11-07T10:35:01.846Z,95463.69
2017-11-07T10:37:30.210Z,95459.20
2017-11-07T10:39:58.567Z,95467.78
2017-11-07T10:42:26.934Z,95461.95
2017-11-07T10:44:55.300Z,95453.25
2017-11-07T10:47:23.674Z,95454.58
2017-11-07T10:49:52.042Z,95449.81
2017-11-07T10:52:20.382Z,95446.73
2017-11-07T10:54:48.762Z,95447.17
2017-11-07T10:57:17.116Z,95443.98
2017-11-07T10:59:45.486Z,95436.09
2017-11-07T11:02:13.874Z,95435.14
2017-11-07T11:04:42.284Z,95432.59
2017-11-07T11:07:10.652Z,95433.57
2017-11-07T11:09:39.064Z,95433.05
2017-11-07T11:12:07.417Z,95433.73
2017-11-07T11:14:35.762Z,95428.72
2017-11-07T11:17:04.155Z,95425.06
2017-11-07T11:19:32.523Z,95420.95
2017-11-07T11:22:00.911Z,95421.55
2017-11-07T11:24:29.276Z,95417.52
2017-11-07T11:26:57.720Z,95414.25
2017-11-07T11:29:26.112Z,95404.78
2017-11-07T11:31:55.414Z,95400.23
2017-11-07T11:34:23.751Z,95400.13
2017-11-07T11:36:52.114Z,95394.22
2017-11-07T11:39:20.460Z,95397.39
2017-11-07T11:41:48.818Z,95386.82
2017-11-07T11:44:17.162Z,95388.20
2017-11-07T11:46:45.555Z,95388.41
2017-11-07T11:49:13.904Z,95384.95
2017-11-07T11:51:42.284Z,95381.81
2017-11-07T11:54:10.630Z,95385.16
2017-11-07T11:56:39.061Z,95376.66
2017-11-07T11:59:07.411Z,95375.59
2017-11-07T12:01:35.767Z,95378.06
2017-11-07T12:04:04.168Z,95374.09
2017-11-07T12:06:32.511Z,95371.33
2017-11-07T12:09:00.863Z,95363.64
2017-11-07T12:11:29.235Z,95360.11
2017-11-07T12:13:57.583Z,95352.78
2017-11-07T12:16:25.964Z,95350.83
2017-11-07T12:18:54.308Z,95347.27
2017-11-07T12:21:22.678Z,95345.77
2017-11-07T12:23:51.028Z,95344.30
2017-11-07T12:26:19.378Z,95344.88
2017-11-07T12:28:47.780Z,95341.97
2017-11-07T12:31:16.141Z,95338.10
2017-11-07T12:33:44.518Z,95336.22
2017-11-07T12:36:12.868Z,95330.30
2017-11-07T12:38:41.225Z,95330.33
2017-11-07T12:41:09.612Z,95332.48
2017-11-07T12:43:37.969Z,95330.72
2017-11-07T12:46:06.343Z,95326.88
2017-11-07T12:48:34.745Z,95329.04
2017-11-07T12:51:14.986Z,95328.14
2017-11-07T12:53:43.326Z,95330.31
2017-11-07T12:56:11.704Z,95327.07
2017-11-07T12:58:40.063Z,95327.84
2017-11-07T13:01:08.456Z,95326.38
2017-11-07T13:03:36.810Z,95311.70
2017-11-07T13:06:05.213Z,95306.15
2017-11-07T13:08:33.777Z,95303.88
2017-11-07T13:11:02.148Z,95305.91
2017-11-07T13:13:30.652Z,95297.08
2017-11-07T13:15:59.004Z,95298.75
2017-11-07T13:18:27.400Z,95301.77
2017-11-07T13:20:55.842Z,95293.90
2017-11-07T13:23:24.217Z,95291.91
2017-11-07T13:25:52.563Z,95283.43
2017-11-07T13:28:21.006Z,95290.45
2017-11-07T13:30:49.354Z,95294.01
2017-11-07T13:33:17.735Z,95295.75
2017-11-07T13:35:46.090Z,95294.69
2017-11-07T13:38:14.446Z,95293.80
2017-11-07T13:40:42.816Z,95302.27
2017-11-07T13:43:11.175Z,95294.30
2017-11-07T13:45:39.550Z,95296.36
2017-11-07T13:48:07.933Z,95293.47
2017-11-07T13:50:36.296Z,95287.98
2017-11-07T13:53:04.685Z,95289.62
2017-11-07T13:55:33.089Z,95285.56
2017-11-07T13:58:07.947Z,95284.38
2017-11-07T14:00:36.290Z,95281.87
2017-11-07T14:03:04.670Z,95273.95
2017-11-07T14:05:33.030Z,95274.16
2017-11-07T14:08:01.402Z,95273.61
2017-11-07T14:10:29.776Z,95272.77
2017-11-07T14:12:58.126Z,95259.35
2017-11-07T14:15:26.475Z,95264.72
2017-11-07T14:17:54.840Z,95259.78
2017-11-07T14:20:23.198Z,95258.11
2017-11-07T14:22:51.547Z,95252.30
2017-11-07T14:25:19.898Z,95247.77
2017-11-07T14:27:48.247Z,95243.59
2017-11-07T14:30:16.655Z,95236.59
2017-11-07T14:32:45.027Z,95237.66
2017-11-07T14:35:13.376Z,95232.03
2017-11-07T14:37:41.718Z,95239.15
2017-11-07T14:40:10.099Z,95234.98
2017-11-07T14:42:38.510Z,95236.87
2017-11-07T14:45:06.867Z,95228.38
2017-11-07T14:47:35.256Z,95225.45
2017-11-07T14:50:03.612Z,95228.52
2017-11-07T14:52:31.980Z,95224.38
2017-11-07T14:55:00.357Z,95224.77
2017-11-07T14:57:28.707Z,95226.66
2017-11-07T14:59:57.087Z,95220.30
2017-11-07T15:02:25.432Z,95224.80
2017-11-07T15:04:53.798Z,95220.53
2017-11-07T15:07:22.157Z,95221.61
2017-11-07T15:12:15.103Z,95213.21
2017-11-07T15:14:43.479Z,95215.89
2017-11-07T15:17:11.833Z,95213.41
2017-11-07T15:19:40.463Z,95210.55
2017-11-07T15:22:10.102Z,95213.49
2017-11-07T15:24:38.519Z,95212.29
2017-11-07T15:27:06.895Z,95208.81
2017-11-07T15:29:35.254Z,95200.45
2017-11-07T15:32:03.668Z,95199.05
2017-11-07T15:34:32.087Z,95202.53
2017-11-07T15:37:03.152Z,95202.80
2017-11-07T15:39:31.505Z,95201.80
2017-11-07T15:41:59.891Z,95202.58
2017-11-07T15:44:28.242Z,95204.17
2017-11-07T15:46:56.591Z,95205.24
2017-11-07T15:49:24.939Z,95211.30
2017-11-07T15:51:53.322Z,95201.34
2017-11-07T15:54:21.689Z,95202.20
2017-11-07T15:56:50.432Z,95202.14
2017-11-07T15:59:18.845Z,95206.51
2017-11-07T16:01:47.310Z,95205.17
2017-11-07T16:04:15.711Z,95197.25
2017-11-07T16:06:44.204Z,95205.63
2017-11-07T16:09:12.769Z,95200.11
2017-11-07T16:11:41.148Z,95201.52
2017-11-07T16:14:09.500Z,95204.08
2017-11-07T16:16:37.856Z,95198.02
2017-11-07T16:19:06.235Z,95203.23
2017-11-07T16:21:34.712Z,95194.66
2017-11-07T16:24:03.135Z,95204.79
2017-11-07T16:26:31.478Z,95201.44
2017-11-07T16:29:00.040Z,95206.98
2017-11-07T16:31:28.409Z,95197.96
2017-11-07T16:33:56.775Z,95202.52
2017-11-07T16:36:25.165Z,95200.00
2017-11-07T16:38:53.548Z,95198.28
2017-11-07T16:41:21.972Z,95196.45
2017-11-07T16:43:50.361Z,95194.50
2017-11-07T16:46:18.714Z,95193.71
2017-11-07T16:48:47.071Z,95197.05
2017-11-07T16:51:15.808Z,95189.76
2017-11-07T16:53:44.208Z,95189.04
2017-11-07T16:56:13.998Z,95184.16
2017-11-07T16:58:42.355Z,95190.58
2017-11-07T17:01:10.743Z,95192.34
2017-11-07T17:03:39.146Z,95185.20
2017-11-07T17:06:07.540Z,95192.25
2017-11-07T17:08:36.004Z,95185.72
2017-11-07T17:11:04.339Z,95185.69
2017-11-07T17:13:32.705Z,95183.80
2017-11-07T17:16:01.064Z,95177.88
2017-11-07T17:18:29.439Z,95170.69
2017-11-07T17:20:57.779Z,95178.78
2017-11-07T17:23:26.161Z,95170.54
2017-11-07T17:25:54.527Z,95168.12
2017-11-07T17:28:22.911Z,95164.17
2017-11-07T17:30:51.284Z,95165.72
2017-11-07T17:33:19.666Z,95166.06
2017-11-07T17:35:48.017Z,95166.47
2017-11-07T17:38:16.406Z,95155.30
2017-11-07T17:40:44.759Z,95160.20
2017-11-07T17:43:13.116Z,95160.52
2017-11-07T17:45:41.480Z,95169.73
2017-11-07T17:48:09.851Z,95166.31
2017-11-07T17:50:38.196Z,95165.98
2017-11-07T17:53:06.592Z,95169.00
2017-11-07T17:55:34.939Z,95172.77
2017-11-07T17:58:03.321Z,95164.64
2017-11-07T18:00:31.722Z,95163.59
2017-11-07T18:03:00.102Z,95167.77
2017-11-07T18:05:28.456Z,95173.69
2017-11-07T18:07:56.814Z,95166.97
2017-11-07T18:10:25.158Z,95168.53
2017-11-07T18:12:53.544Z,95160.45
2017-11-07T18:15:21.919Z,95158.36
2017-11-07T18:17:50.260Z,95152.06
2017-11-07T18:20:18.689Z,95156.62
2017-11-07T18:22:47.060Z,95159.16
2017-11-07T18:25:15.429Z,95157.20
2017-11-07T18:27:43.804Z,95162.92
2017-11-07T18:30:12.143Z,95149.78
2017-11-07T18:32:40.495Z,95150.81
2017-11-07T18:35:08.889Z,95147.87
2017-11-07T18:37:37.243Z,95145.87
2017-11-07T18:40:05.593Z,95149.48
2017-11-07T18:42:33.947Z,95149.88
2017-11-07T18:45:02.299Z,95148.98
2017-11-07T18:47:30.694Z,95139.25
2017-11-07T18:49:59.063Z,95135.31
2017-11-07T18:52:27.467Z,95139.19
2017-11-07T18:54:55.814Z,95136.21
2017-11-07T18:57:24.163Z,95144.67
2017-11-07T18:59:52.515Z,95139.49
2017-11-07T19:02:20.896Z,95139.53
2017-11-07T19:04:49.252Z,95137.71
2017-11-07T19:07:17.596Z,95136.20
2017-11-07T19:09:45.944Z,95137.02
2017-11-07T19:12:20.738Z,95131.00
2017-11-07T19:14:49.126Z,95128.85
2017-11-07T19:17:17.483Z,95134.88
2017-11-07T19:19:45.875Z,95125.13
2017-11-07T19:22:14.228Z,95125.50
2017-11-07T19:24:42.599Z,95124.23
2017-11-07T19:27:10.959Z,95124.13
2017-11-07T19:29:39.359Z,95120.90
2017-11-07T19:32:07.977Z,95120.94
2017-11-07T19:34:36.371Z,95124.85
2017-11-07T19:37:04.785Z,95123.24
2017-11-07T19:39:33.130Z,95127.45
2017-11-07T19:42:01.531Z,95129.96
2017-11-07T19:44:29.927Z,95121.05
2017-11-07T19:46:58.316Z,95119.83
2017-11-07T19:49:26.690Z,95107.63
2017-11-07T19:51:55.084Z,95102.95
2017-11-07T19:54:23.480Z,95101.57
2017-11-07T19:56:51.836Z,95104.97
2017-11-07T19:59:20.210Z,95102.17
2017-11-07T20:01:48.574Z,95104.30
2017-11-07T20:04:16.922Z,95115.93
2017-11-07T20:06:45.310Z,95111.86
2017-11-07T20:09:15.600Z,95115.95
2017-11-07T20:11:43.975Z,95114.45
2017-11-07T20:14:12.330Z,95116.55
2017-11-07T20:16:40.712Z,95112.20
2017-11-07T20:19:09.059Z,95114.66
2017-11-07T20:21:37.743Z,95113.15
2017-11-07T20:24:06.214Z,95111.09
2017-11-07T20:26:34.672Z,95105.02
2017-11-07T20:29:03.023Z,95108.07
2017-11-07T20:31:31.419Z,95103.57
2017-11-07T20:33:59.773Z,95106.25
2017-11-07T20:36:28.426Z,95102.18
2017-11-07T20:38:56.913Z,95102.06
2017-11-07T20:41:25.303Z,95101.85
2017-11-07T20:43:53.684Z,95094.66
2017-11-07T20:46:22.039Z,95099.27
2017-11-07T20:48:50.414Z,95097.89
2017-11-07T20:51:18.764Z,95092.24
2017-11-07T20:53:47.131Z,95092.54
2017-11-07T20:56:15.503Z,95093.20
2017-11-07T20:58:43.971Z,95095.05
2017-11-07T21:01:12.347Z,95089.86
2017-11-07T21:03:40.708Z,95086.77
2017-11-07T21:06:09.062Z,95082.24
2017-11-07T21:08:37.406Z,95085.83
2017-11-07T21:11:05.792Z,95080.33
2017-11-07T21:13:34.187Z,95083.39
2017-11-07T21:16:02.546Z,95072.27
2017-11-07T21:18:30.894Z,95077.70
2017-11-07T21:20:59.268Z,95070.23
2017-11-07T21:23:27.632Z,95065.89
2017-11-07T21:25:56.032Z,95062.87
2017-11-07T21:28:24.385Z,95062.89
2017-11-07T21:30:52.761Z,95060.10
2017-11-07T21:33:21.964Z,95051.92
2017-11-07T21:35:50.311Z,95053.67
2017-11-07T21:38:21.484Z,95056.62
2017-11-07T21:40:49.835Z,95053.32
2017-11-07T21:43:18.217Z,95046.87
2017-11-07T21:45:46.580Z,95043.55
2017-11-07T21:48:14.969Z,95044.04
2017-11-07T21:50:43.389Z,95038.24
2017-11-07T21:53:11.738Z,95039.36
2017-11-07T21:55:40.121Z,95041.63
2017-11-07T21:58:08.469Z,95031.65
2017-11-07T22:00:36.848Z,95028.72
2017-11-07T22:03:05.205Z,95028.58
2017-11-07T22:05:33.588Z,95015.14
2017-11-07T22:08:01.945Z,95015.66
2017-11-07T22:10:30.333Z,95019.34
2017-11-07T22:12:58.680Z,95014.47
2017-11-07T22:15:27.029Z,95013.38
2017-11-07T22:18:10.999Z,95016.06
2017-11-07T22:20:40.270Z,95009.61
2017-11-07T22:23:14.109Z,95003.23
2017-11-07T22:25:44.411Z,95008.84
2017-11-07T22:28:12.791Z,95000.46
2017-11-07T22:33:16.644Z,94999.21
2017-11-07T22:35:45.055Z,94995.15
2017-11-07T22:38:13.415Z,94993.12
2017-11-07T22:40:41.756Z,94987.03
2017-11-07T22:43:10.133Z,94985.16
2017-11-07T22:45:38.479Z,94976.72
2017-11-07T22:48:06.861Z,94979.34
2017-11-07T22:50:35.207Z,94977.92
2017-11-07T22:53:03.578Z,94977.66
2017-11-07T22:55:31.928Z,94986.41
2017-11-07T22:58:00.292Z,94984.97
2017-11-07T23:00:28.666Z,94979.52
2017-11-07T23:02:57.010Z,94980.25
2017-11-07T23:05:25.372Z,94975.66
2017-11-07T23:07:53.765Z,94977.30
2017-11-07T23:10:22.134Z,94975.46
2017-11-07T23:12:50.515Z,94974.48
2017-11-07T23:15:18.859Z,94972.78
2017-11-07T23:17:47.207Z,94973.81
2017-11-07T23:20:15.558Z,94971.12
2017-11-07T23:22:43.915Z,94967.68
2017-11-07T23:25:12.288Z,94966.77
2017-11-07T23:27:40.655Z,94969.39
2017-11-07T23:30:09.053Z,94965.72
2017-11-07T23:32:37.444Z,94966.38
2017-11-07T23:35:05.812Z,94967.98
2017-11-07T23:37:34.165Z,94969.69
2017-11-07T23:40:02.517Z,94974.74
2017-11-07T23:42:30.871Z,94969.74
2017-11-07T23:44:59.351Z,94970.37
2017-11-07T23:47:27.717Z,94971.88
2017-11-07T23:49:56.063Z,94972.45
2017-11-07T23:52:24.402Z,94965.69
2017-11-07T23:54:52.801Z,94965.51
2017-11-07T23:57:21.157Z,94973.09
2017-11-07T23:59:49.542Z,94970.09
